Time;durP1;ratioP1;P1;durP2;ratioP2;P2;SDS_P1;SDS_P2;PMS_P1;PMS_P2;Temp;Humidity;BMP_temperature;BMP_pressure;BME280_temperature;BME280_humidity;BME280_pressure;Samples;Min_cycle;Max_cycle;Signal;HPM_P1;HPM_P2
2022/08/19 00:00:14;;;;;;;10.57;5.72;;;21.50;99.90;;;;;;4990004;28;20267;-87
2022/08/19 00:02:41;;;;;;;6.40;5.40;;;21.50;99.90;;;;;;4991612;28;20255;-88
2022/08/19 00:05:09;;;;;;;9.15;5.25;;;21.40;99.90;;;;;;4989990;28;20695;-86
2022/08/19 00:07:35;;;;;;;8.38;5.15;;;21.40;99.90;;;;;;4990127;28;20180;-87
2022/08/19 00:10:04;;;;;;;8.70;5.90;;;21.40;99.90;;;;;;4990385;28;20635;-87
2022/08/19 00:12:30;;;;;;;6.15;5.07;;;21.40;99.90;;;;;;4990407;28;20250;-86
2022/08/19 00:14:55;;;;;;;7.60;5.03;;;21.40;99.90;;;;;;4991496;28;20171;-87
2022/08/19 00:17:21;;;;;;;7.78;5.78;;;21.40;99.90;;;;;;4990517;28;20268;-86
2022/08/19 00:19:47;;;;;;;10.63;5.63;;;21.40;99.90;;;;;;4991518;28;20280;-86
2022/08/19 00:22:13;;;;;;;7.78;5.35;;;21.30;99.90;;;;;;4990118;28;20544;-86
2022/08/19 00:24:40;;;;;;;11.30;5.88;;;21.30;99.90;;;;;;4989798;28;20262;-85
2022/08/19 00:27:06;;;;;;;8.95;5.45;;;21.30;99.90;;;;;;4990267;28;20191;-88
2022/08/19 00:29:32;;;;;;;8.20;5.35;;;21.30;99.90;;;;;;4990023;28;20235;-88
2022/08/19 00:31:59;;;;;;;7.80;4.95;;;21.30;99.90;;;;;;4990196;28;20188;-87
2022/08/19 00:34:27;;;;;;;9.05;6.13;;;21.30;99.90;;;;;;4990015;28;20552;-86
2022/08/19 00:36:53;;;;;;;8.00;5.22;;;21.30;99.90;;;;;;4990224;28;20191;-86
2022/08/19 00:39:19;;;;;;;8.55;5.38;;;21.30;99.90;;;;;;4992459;28;20223;-86
2022/08/19 00:41:48;;;;;;;9.23;5.25;;;21.30;99.90;;;;;;4995152;28;20172;-86
2022/08/19 00:44:20;;;;;;;7.68;5.13;;;21.30;99.90;;;;;;4993740;28;20184;-86
2022/08/19 00:46:48;;;;;;;8.75;5.50;;;21.30;99.90;;;;;;4993806;28;20238;-87
2022/08/19 00:49:29;;;;;;;8.43;5.10;;;21.20;99.90;;;;;;4993542;28;20234;-86
2022/08/19 00:52:05;;;;;;;8.20;5.47;;;21.20;99.90;;;;;;4993564;28;20205;-86
2022/08/19 00:54:32;;;;;;;8.77;5.80;;;21.20;99.90;;;;;;4993543;28;20172;-86
2022/08/19 00:57:01;;;;;;;8.63;5.28;;;21.20;99.90;;;;;;4993438;28;20168;-85
2022/08/19 00:59:28;;;;;;;7.38;5.20;;;21.20;99.90;;;;;;4993273;28;20238;-88
2022/08/19 01:01:54;;;;;;;11.63;5.50;;;21.20;99.90;;;;;;4994510;28;20255;-87
2022/08/19 01:04:19;;;;;;;8.00;5.30;;;21.20;99.90;;;;;;4993473;28;20667;-88
2022/08/19 01:06:45;;;;;;;8.68;5.22;;;21.10;99.90;;;;;;4993675;28;20195;-87
2022/08/19 01:09:11;;;;;;;8.82;5.50;;;21.10;99.90;;;;;;4993014;28;20172;-86
2022/08/19 01:11:41;;;;;;;7.53;4.93;;;21.10;99.90;;;;;;4993206;28;20259;-85
2022/08/19 01:14:08;;;;;;;6.50;4.78;;;21.10;99.90;;;;;;4993122;28;20172;-86
2022/08/19 01:16:36;;;;;;;8.77;5.20;;;21.10;99.90;;;;;;4993307;28;20200;-87
2022/08/19 01:19:01;;;;;;;8.27;5.32;;;21.00;99.90;;;;;;4993132;28;20216;-87
2022/08/19 01:21:51;;;;;;;8.35;5.25;;;21.00;99.90;;;;;;4993223;28;20183;-86
2022/08/19 01:24:17;;;;;;;7.80;5.13;;;21.00;99.90;;;;;;4993194;28;20223;-87
2022/08/19 01:26:44;;;;;;;8.25;5.43;;;21.00;99.90;;;;;;4992870;28;20211;-86
2022/08/19 01:29:11;;;;;;;10.68;5.40;;;21.00;99.90;;;;;;4992542;28;20180;-86
2022/08/19 01:31:39;;;;;;;6.30;5.20;;;20.90;99.90;;;;;;4993070;28;20184;-86
2022/08/19 01:34:05;;;;;;;8.25;5.07;;;20.90;99.90;;;;;;4992702;28;20191;-88
2022/08/19 01:36:35;;;;;;;6.03;5.20;;;20.90;99.90;;;;;;4993014;28;20640;-86
2022/08/19 01:39:05;;;;;;;6.50;5.15;;;20.90;99.90;;;;;;4992775;28;20246;-85
2022/08/19 01:44:08;;;;;;;8.13;5.25;;;20.90;99.90;;;;;;4957362;26;20251;-85
2022/08/19 01:46:34;;;;;;;6.45;5.20;;;20.90;99.90;;;;;;4959336;28;20180;-86
2022/08/19 01:49:01;;;;;;;5.88;4.75;;;20.80;99.90;;;;;;4958430;28;20596;-89
2022/08/19 01:51:27;;;;;;;8.50;5.20;;;20.80;99.90;;;;;;4973576;28;20178;-89
2022/08/19 01:53:54;;;;;;;6.55;5.03;;;20.80;99.90;;;;;;4959293;28;20172;-88
2022/08/19 01:56:20;;;;;;;7.20;4.68;;;20.70;99.90;;;;;;4958195;29;20177;-89
2022/08/19 01:58:50;;;;;;;8.63;5.05;;;20.70;99.90;;;;;;4974146;28;20566;-90
2022/08/19 02:01:17;;;;;;;6.40;4.70;;;20.70;99.90;;;;;;4974133;28;20592;-89
2022/08/19 02:03:48;;;;;;;5.68;4.47;;;20.70;99.90;;;;;;4974501;28;20186;-90
2022/08/19 02:06:13;;;;;;;7.72;5.28;;;20.70;99.90;;;;;;4958109;29;20184;-88
2022/08/19 02:08:40;;;;;;;6.47;4.90;;;20.70;99.90;;;;;;4974207;28;20181;-89
2022/08/19 02:11:06;;;;;;;8.57;5.05;;;20.60;99.90;;;;;;4959226;28;20252;-90
2022/08/19 02:13:42;;;;;;;7.82;5.55;;;20.60;99.90;;;;;;4957642;29;20181;-88
2022/08/19 02:16:08;;;;;;;12.10;6.55;;;20.60;99.90;;;;;;4958933;28;20255;-87
2022/08/19 02:18:34;;;;;;;8.25;5.25;;;20.50;99.90;;;;;;4974107;28;20303;-87
2022/08/19 02:20:59;;;;;;;8.43;5.35;;;20.50;99.90;;;;;;4973999;28;20367;-89
2022/08/19 02:23:27;;;;;;;7.88;5.00;;;20.50;99.90;;;;;;4973627;28;20185;-87
2022/08/19 02:25:53;;;;;;;5.90;4.60;;;20.50;99.90;;;;;;4973711;28;20236;-88
2022/08/19 02:28:18;;;;;;;8.52;5.57;;;20.40;99.90;;;;;;4973564;28;20189;-88
2022/08/19 02:30:46;;;;;;;10.00;5.28;;;20.40;99.90;;;;;;4973534;28;20229;-89
2022/08/19 02:33:11;;;;;;;10.00;5.28;;;20.40;99.90;;;;;;4973508;28;20277;-87
2022/08/19 02:35:40;;;;;;;12.10;5.53;;;20.30;99.90;;;;;;4973667;28;20208;-87
2022/08/19 02:40:52;;;;;;;7.72;5.15;;;20.30;99.90;;;;;;4958930;29;20176;-88
2022/08/19 02:43:20;;;;;;;8.32;5.03;;;20.30;99.90;;;;;;4973290;28;20229;-88
2022/08/19 02:45:47;;;;;;;8.65;4.78;;;20.30;99.90;;;;;;4973222;28;20177;-88
2022/08/19 02:48:17;;;;;;;7.22;4.97;;;20.30;99.90;;;;;;4973352;28;20177;-88
2022/08/19 02:50:42;;;;;;;6.05;4.85;;;20.30;99.90;;;;;;4973083;28;20177;-88
2022/08/19 02:53:08;;;;;;;9.65;5.10;;;20.20;99.90;;;;;;4973239;28;20636;-88
2022/08/19 02:55:53;;;;;;;8.05;5.10;;;20.20;99.90;;;;;;4973318;28;20177;-87
2022/08/19 02:58:21;;;;;;;8.27;5.03;;;20.20;99.90;;;;;;4972496;28;20551;-88
2022/08/19 03:00:52;;;;;;;8.55;5.03;;;20.20;99.90;;;;;;4973016;28;20213;-87
2022/08/19 03:03:18;;;;;;;8.82;5.20;;;20.10;99.90;;;;;;4973177;28;20235;-87
2022/08/19 03:05:47;;;;;;;6.05;4.93;;;20.10;99.90;;;;;;4973187;28;20239;-89
2022/08/19 03:08:13;;;;;;;12.55;5.63;;;20.10;99.90;;;;;;4973711;28;20200;-86
2022/08/19 03:10:47;;;;;;;9.82;4.88;;;20.00;99.90;;;;;;4973183;28;20631;-87
2022/08/19 03:13:17;;;;;;;5.57;4.78;;;20.00;99.90;;;;;;4972460;28;20201;-86
2022/08/19 03:15:45;;;;;;;9.48;5.05;;;19.90;99.90;;;;;;4973252;28;20636;-86
2022/08/19 03:18:11;;;;;;;6.82;4.63;;;19.90;99.90;;;;;;4973053;28;20213;-86
2022/08/19 03:20:45;;;;;;;9.20;5.15;;;19.80;99.90;;;;;;4972798;28;20236;-85
2022/08/19 03:23:15;;;;;;;7.70;4.93;;;19.80;99.90;;;;;;4957982;28;20174;-86
2022/08/19 03:25:45;;;;;;;7.70;5.18;;;19.80;99.90;;;;;;4956933;29;20184;-86
2022/08/19 03:28:12;;;;;;;6.78;4.47;;;19.80;99.90;;;;;;4972323;28;20181;-86
2022/08/19 03:30:40;;;;;;;9.05;5.43;;;19.80;99.90;;;;;;4972667;28;20629;-89
2022/08/19 03:33:11;;;;;;;10.30;4.80;;;19.80;99.90;;;;;;4972462;28;20244;-89
2022/08/19 03:35:37;;;;;;;7.95;4.75;;;19.80;99.90;;;;;;4973069;28;20176;-88
2022/08/19 03:38:06;;;;;;;7.82;4.90;;;19.80;99.90;;;;;;4972361;28;20213;-87
2022/08/19 03:40:36;;;;;;;10.05;4.97;;;19.70;99.90;;;;;;4972421;28;20177;-86
2022/08/19 03:43:02;;;;;;;7.68;5.07;;;19.70;99.90;;;;;;4972000;28;20320;-85
2022/08/19 03:45:29;;;;;;;10.05;4.53;;;19.70;99.90;;;;;;4972484;28;20781;-87
2022/08/19 03:47:55;;;;;;;7.80;4.63;;;19.60;99.90;;;;;;4972362;28;20173;-88
2022/08/19 03:50:21;;;;;;;10.55;5.35;;;19.70;99.90;;;;;;4972136;28;20272;-87
2022/08/19 03:52:51;;;;;;;7.57;5.00;;;19.70;99.90;;;;;;4972442;28;20181;-89
2022/08/19 03:55:19;;;;;;;7.97;4.95;;;19.60;99.90;;;;;;4972174;28;20192;-86
2022/08/19 03:57:47;;;;;;;12.27;5.20;;;19.60;99.90;;;;;;4971900;28;20209;-86
2022/08/19 04:00:13;;;;;;;8.02;4.43;;;19.60;99.90;;;;;;4972013;28;20177;-87
2022/08/19 04:02:40;;;;;;;7.85;4.90;;;19.60;99.90;;;;;;4972057;28;20260;-86
2022/08/19 04:05:08;;;;;;;9.25;4.75;;;19.60;99.90;;;;;;4957095;28;20173;-87
2022/08/19 04:07:33;;;;;;;8.88;4.55;;;19.50;99.90;;;;;;4956968;28;20173;-86
2022/08/19 04:09:59;;;;;;;6.45;4.43;;;19.50;99.90;;;;;;4971813;28;20185;-86
2022/08/19 04:12:25;;;;;;;6.03;4.38;;;19.50;99.90;;;;;;4956787;28;20173;-85
2022/08/19 04:15:05;;;;;;;10.70;4.60;;;19.60;99.90;;;;;;4956767;28;20216;-86
2022/08/19 04:17:32;;;;;;;7.65;4.88;;;19.50;99.90;;;;;;4974784;28;20640;-85
2022/08/19 04:19:57;;;;;;;5.75;4.18;;;19.50;99.90;;;;;;4974299;28;20189;-85
2022/08/19 04:22:23;;;;;;;11.10;4.85;;;19.50;99.90;;;;;;4972045;28;20177;-86
2022/08/19 04:24:56;;;;;;;7.20;4.72;;;19.50;99.90;;;;;;4971984;28;20176;-86
2022/08/19 04:27:21;;;;;;;6.57;4.40;;;19.50;99.90;;;;;;4971614;28;20683;-85
2022/08/19 04:29:47;;;;;;;6.85;4.30;;;19.50;99.90;;;;;;4971437;28;20189;-86
2022/08/19 04:32:15;;;;;;;6.55;4.50;;;19.50;99.90;;;;;;4971804;28;20635;-86
2022/08/19 04:34:42;;;;;;;8.32;4.45;;;19.50;99.90;;;;;;4971725;28;20192;-88
2022/08/19 04:37:12;;;;;;;9.20;4.47;;;19.50;99.90;;;;;;4956933;28;20213;-86
2022/08/19 04:42:38;;;;;;;6.63;4.72;;;19.40;99.90;;;;;;4956970;28;20244;-88
2022/08/19 04:45:13;;;;;;;7.20;4.22;;;19.40;99.90;;;;;;4941085;28;20178;-85
2022/08/19 04:47:44;;;;;;;5.45;3.97;;;19.40;99.90;;;;;;4936475;29;20274;-86
2022/08/19 04:50:11;;;;;;;5.90;3.92;;;19.40;99.90;;;;;;4952486;29;20185;-86
2022/08/19 04:52:41;;;;;;;9.00;4.47;;;19.40;99.90;;;;;;4952320;29;20185;-86
2022/08/19 04:55:10;;;;;;;7.63;4.30;;;19.40;99.90;;;;;;4952308;29;20170;-86
2022/08/19 04:57:39;;;;;;;9.18;5.00;;;19.30;99.90;;;;;;4951900;29;20206;-86
2022/08/19 05:00:07;;;;;;;5.38;4.20;;;19.30;99.90;;;;;;4952167;28;20186;-89
2022/08/19 05:02:33;;;;;;;7.40;4.88;;;19.30;99.90;;;;;;4957707;28;20699;-85
2022/08/19 05:05:06;;;;;;;7.63;4.40;;;19.30;99.90;;;;;;4949282;29;20181;-85
2022/08/19 05:07:32;;;;;;;7.03;5.00;;;19.20;99.90;;;;;;4971537;28;20488;-87
2022/08/19 05:09:57;;;;;;;5.80;4.32;;;19.20;99.90;;;;;;4971658;28;20201;-87
2022/08/19 05:12:23;;;;;;;4.72;4.05;;;19.20;99.90;;;;;;4971432;28;20217;-87
2022/08/19 05:14:49;;;;;;;10.55;5.07;;;19.20;99.90;;;;;;4955125;29;20173;-85
2022/08/19 05:17:15;;;;;;;7.78;4.68;;;19.20;99.90;;;;;;4971803;28;20243;-88
2022/08/19 05:22:36;;;;;;;8.02;4.97;;;19.10;99.90;;;;;;4937608;28;20190;-88
2022/08/19 05:25:12;;;;;;;8.00;5.03;;;19.20;99.90;;;;;;4971759;28;20177;-86
2022/08/19 05:27:38;;;;;;;9.02;5.00;;;19.10;99.90;;;;;;4974961;28;20185;-86
2022/08/19 05:30:05;;;;;;;5.68;4.35;;;19.10;99.90;;;;;;4974518;28;20181;-85
2022/08/19 05:32:30;;;;;;;6.03;4.38;;;19.10;99.90;;;;;;4974713;28;20181;-84
2022/08/19 05:35:04;;;;;;;6.57;4.82;;;19.10;99.90;;;;;;4959575;28;20199;-89
2022/08/19 05:37:29;;;;;;;6.00;4.57;;;19.10;99.90;;;;;;4974713;28;20547;-91
2022/08/19 05:39:55;;;;;;;6.75;4.85;;;19.10;99.90;;;;;;4974490;28;20185;-90
2022/08/19 05:42:25;;;;;;;5.22;4.22;;;19.10;99.90;;;;;;4974436;28;20300;-90
2022/08/19 05:44:51;;;;;;;7.18;4.93;;;19.10;99.90;;;;;;4974275;28;20285;-89
2022/08/19 05:47:19;;;;;;;9.35;5.38;;;19.10;99.90;;;;;;4974296;28;20237;-87
2022/08/19 05:49:44;;;;;;;7.82;5.05;;;19.00;99.90;;;;;;4974637;28;20272;-86
2022/08/19 05:52:15;;;;;;;8.07;5.13;;;19.00;99.90;;;;;;4974144;28;20377;-86
2022/08/19 05:54:42;;;;;;;9.70;5.15;;;19.10;99.90;;;;;;4974283;28;20185;-89
2022/08/19 05:57:10;;;;;;;7.53;4.97;;;19.10;99.90;;;;;;4974683;28;20208;-87
2022/08/19 05:59:35;;;;;;;8.27;4.72;;;19.10;99.90;;;;;;4958333;29;20192;-90
2022/08/19 06:02:03;;;;;;;6.38;4.88;;;19.10;99.90;;;;;;4958218;28;20174;-89
2022/08/19 06:04:29;;;;;;;7.82;5.95;;;19.10;99.90;;;;;;4974148;28;20181;-90
2022/08/19 06:06:56;;;;;;;7.10;5.20;;;19.10;99.90;;;;;;4974162;28;20265;-89
2022/08/19 06:09:22;;;;;;;7.75;5.32;;;19.10;99.90;;;;;;4959284;28;20185;-89
2022/08/19 06:11:54;;;;;;;6.60;4.45;;;19.10;99.90;;;;;;4974320;28;20236;-88
2022/08/19 06:14:23;;;;;;;6.85;4.82;;;19.10;99.90;;;;;;4974097;28;20607;-89
2022/08/19 06:16:52;;;;;;;6.88;4.88;;;19.10;99.90;;;;;;4973979;28;20257;-89
2022/08/19 06:19:19;;;;;;;9.45;5.50;;;19.10;99.90;;;;;;4973275;28;20224;-88
2022/08/19 06:21:47;;;;;;;7.75;5.28;;;19.10;99.90;;;;;;4973137;28;20297;-86
2022/08/19 06:24:15;;;;;;;9.30;5.30;;;19.10;99.90;;;;;;4973839;28;20178;-86
2022/08/19 06:26:46;;;;;;;10.20;5.53;;;19.20;99.90;;;;;;4973733;28;20272;-88
2022/08/19 06:29:14;;;;;;;7.13;5.18;;;19.10;99.90;;;;;;4973427;28;20687;-86
2022/08/19 06:31:45;;;;;;;5.75;4.93;;;19.10;99.90;;;;;;4974041;28;20228;-87
2022/08/19 06:34:12;;;;;;;7.20;4.72;;;19.10;99.90;;;;;;4973970;28;20181;-88
2022/08/19 06:36:43;;;;;;;7.57;4.90;;;19.10;99.90;;;;;;4973028;28;20174;-87
2022/08/19 06:39:12;;;;;;;6.45;5.25;;;19.10;99.90;;;;;;4973506;28;20677;-89
2022/08/19 06:41:46;;;;;;;6.60;5.10;;;19.10;99.90;;;;;;4939211;29;20673;-87
2022/08/19 06:44:12;;;;;;;4.97;4.47;;;19.10;99.90;;;;;;4971620;28;20205;-86
2022/08/19 06:46:45;;;;;;;10.05;5.63;;;19.00;99.90;;;;;;4958455;28;20170;-87
2022/08/19 06:49:13;;;;;;;6.07;5.07;;;19.00;99.90;;;;;;4958387;28;20169;-89
2022/08/19 06:51:41;;;;;;;9.77;5.35;;;19.00;99.90;;;;;;4973146;28;20181;-87
2022/08/19 06:54:07;;;;;;;7.40;4.75;;;19.00;99.90;;;;;;4973293;28;20520;-88
2022/08/19 06:56:47;;;;;;;8.90;4.53;;;19.00;99.90;;;;;;4973244;28;20181;-87
2022/08/19 06:59:17;;;;;;;10.55;4.60;;;19.00;99.90;;;;;;4973004;28;20209;-88
2022/08/19 07:01:46;;;;;;;6.55;4.10;;;19.00;99.90;;;;;;4973297;28;20181;-87
2022/08/19 07:04:15;;;;;;;7.88;4.38;;;19.00;99.90;;;;;;4973257;28;20188;-87
2022/08/19 07:06:45;;;;;;;4.82;4.30;;;19.00;99.90;;;;;;4973145;28;20191;-88
2022/08/19 07:09:17;;;;;;;6.82;4.43;;;19.00;99.90;;;;;;4973177;28;20224;-88
2022/08/19 07:11:52;;;;;;;6.63;4.60;;;19.00;99.90;;;;;;4973168;28;20181;-88
2022/08/19 07:14:21;;;;;;;6.85;4.15;;;19.00;99.90;;;;;;4958057;28;20177;-87
2022/08/19 07:16:51;;;;;;;5.65;4.22;;;19.00;99.90;;;;;;4973966;28;20177;-89
2022/08/19 07:19:18;;;;;;;6.60;3.80;;;19.00;99.90;;;;;;4980245;28;20209;-87
2022/08/19 07:21:47;;;;;;;7.18;4.47;;;19.00;99.90;;;;;;4974104;28;20240;-88
2022/08/19 07:24:13;;;;;;;6.38;4.00;;;19.00;99.90;;;;;;4973028;28;20192;-89
2022/08/19 07:26:44;;;;;;;6.00;4.40;;;19.00;99.90;;;;;;4972978;28;20174;-88
2022/08/19 07:29:11;;;;;;;8.88;4.22;;;19.00;99.90;;;;;;4972710;28;20173;-87
2022/08/19 07:31:37;;;;;;;5.00;3.78;;;19.00;99.90;;;;;;4972719;28;20331;-87
2022/08/19 07:34:08;;;;;;;6.90;4.07;;;19.00;99.90;;;;;;4972633;28;20941;-87
2022/08/19 07:36:38;;;;;;;4.68;3.90;;;19.00;99.90;;;;;;4972381;28;20185;-87
2022/08/19 07:39:16;;;;;;;6.45;4.20;;;19.00;99.90;;;;;;4972245;28;20216;-88
2022/08/19 07:41:42;;;;;;;7.18;4.32;;;19.00;99.90;;;;;;4972654;28;20215;-88
2022/08/19 07:44:09;;;;;;;6.22;4.30;;;19.00;99.90;;;;;;4972530;28;20212;-86
2022/08/19 07:46:38;;;;;;;6.97;3.55;;;19.10;99.90;;;;;;4957527;28;20165;-88
2022/08/19 07:49:06;;;;;;;6.43;4.05;;;19.10;99.90;;;;;;4971646;28;20276;-86
2022/08/19 07:51:32;;;;;;;4.55;3.75;;;19.00;99.90;;;;;;4957254;28;20173;-86
2022/08/19 07:53:58;;;;;;;5.82;4.40;;;19.10;99.90;;;;;;4957303;29;20184;-86
2022/08/19 07:56:27;;;;;;;7.90;4.28;;;19.00;99.90;;;;;;4956333;29;20181;-87
2022/08/19 07:58:53;;;;;;;6.75;3.92;;;19.00;99.90;;;;;;4955890;29;20321;-87
2022/08/19 08:01:24;;;;;;;12.63;4.30;;;19.00;99.90;;;;;;4956020;29;20189;-86
2022/08/19 08:09:33;;;;;;;7.80;4.30;;;19.10;99.90;;;;;;4957042;29;20635;-87
2022/08/19 08:12:10;;;;;;;5.03;3.90;;;19.10;99.90;;;;;;4955849;29;20208;-87
2022/08/19 08:14:41;;;;;;;6.93;3.88;;;19.10;99.90;;;;;;4952628;28;20185;-86
2022/08/19 08:17:09;;;;;;;6.22;3.88;;;19.10;99.90;;;;;;4937086;29;20220;-88
2022/08/19 08:19:36;;;;;;;7.70;4.57;;;19.20;99.90;;;;;;4936781;29;20221;-88
2022/08/19 08:22:03;;;;;;;7.13;3.80;;;19.10;99.90;;;;;;4936466;29;20269;-89
2022/08/19 08:24:30;;;;;;;9.23;4.05;;;19.20;99.90;;;;;;4936817;29;20224;-89
2022/08/19 08:27:06;;;;;;;6.65;3.90;;;19.20;99.90;;;;;;4936744;29;20205;-88
2022/08/19 08:29:33;;;;;;;7.47;4.55;;;19.30;99.90;;;;;;4952673;29;20652;-90
2022/08/19 08:31:58;;;;;;;5.53;3.70;;;19.30;99.90;;;;;;4936749;29;20530;-88
2022/08/19 08:34:24;;;;;;;5.53;3.90;;;19.40;99.90;;;;;;4937662;29;20508;-88
2022/08/19 08:37:09;;;;;;;6.80;3.85;;;19.40;99.90;;;;;;4937522;29;20182;-89
2022/08/19 08:39:35;;;;;;;6.05;3.60;;;19.50;99.90;;;;;;4936519;29;20209;-88
2022/08/19 08:42:13;;;;;;;4.30;3.38;;;19.60;99.90;;;;;;4936533;29;20190;-89
2022/08/19 08:44:57;;;;;;;7.95;3.65;;;19.60;99.90;;;;;;4971801;28;20189;-89
2022/08/19 08:47:28;;;;;;;4.97;3.35;;;19.60;99.90;;;;;;4972050;28;20185;-90
2022/08/19 08:50:03;;;;;;;8.88;3.58;;;19.70;99.90;;;;;;4971900;28;20585;-89
2022/08/19 08:52:35;;;;;;;8.38;3.83;;;19.80;99.90;;;;;;4971838;28;20231;-89
2022/08/19 08:55:06;;;;;;;4.55;3.08;;;19.90;99.90;;;;;;4955713;29;20189;-93
2022/08/19 08:57:54;;;;;;;3.80;3.17;;;19.90;99.90;;;;;;4971729;28;20227;-90
2022/08/19 09:00:29;;;;;;;5.72;3.55;;;20.00;99.90;;;;;;4974185;28;20200;-89
2022/08/19 09:02:57;;;;;;;5.70;3.55;;;20.00;99.90;;;;;;4959490;29;20212;-88
2022/08/19 09:05:26;;;;;;;5.30;3.70;;;20.10;99.90;;;;;;4975359;28;20708;-89
2022/08/19 09:08:08;;;;;;;4.95;3.20;;;20.10;99.90;;;;;;4960172;28;20178;-91
2022/08/19 09:10:39;;;;;;;7.28;4.07;;;20.20;99.90;;;;;;4975275;28;20204;-90
2022/08/19 09:13:27;;;;;;;4.63;3.50;;;20.30;99.90;;;;;;4975763;28;20177;-90
2022/08/19 09:15:57;;;;;;;6.50;3.47;;;20.30;99.90;;;;;;4958999;29;20169;-90
2022/08/19 09:18:25;;;;;;;4.13;3.33;;;20.30;99.90;;;;;;4975084;28;20240;-92
2022/08/19 09:20:51;;;;;;;5.65;3.20;;;20.40;99.90;;;;;;4975141;28;20173;-88
2022/08/19 09:23:17;;;;;;;4.53;3.47;;;20.40;99.90;;;;;;4974858;28;20185;-90
2022/08/19 09:25:42;;;;;;;4.63;3.50;;;20.40;99.90;;;;;;4975019;28;20178;-87
2022/08/19 09:28:11;;;;;;;4.43;3.22;;;20.50;99.90;;;;;;4974873;28;20680;-88
2022/08/19 09:30:41;;;;;;;6.18;3.85;;;20.40;99.90;;;;;;4974898;28;20184;-88
2022/08/19 09:33:07;;;;;;;4.18;3.15;;;20.40;99.90;;;;;;4959796;28;20165;-87
2022/08/19 09:35:35;;;;;;;6.32;3.53;;;20.40;99.90;;;;;;4974895;28;20213;-90
2022/08/19 09:38:21;;;;;;;4.43;3.00;;;20.40;99.90;;;;;;4974710;28;20252;-88
2022/08/19 09:40:46;;;;;;;3.97;3.45;;;20.50;99.90;;;;;;4958296;29;20181;-87
2022/08/19 09:43:12;;;;;;;5.78;3.63;;;20.50;99.90;;;;;;4959422;28;20220;-93
2022/08/19 09:45:38;;;;;;;5.90;3.40;;;20.50;99.90;;;;;;4975092;28;20185;-90
2022/08/19 09:48:04;;;;;;;4.70;3.38;;;20.40;99.90;;;;;;4974710;28;20271;-89
2022/08/19 09:50:35;;;;;;;6.75;3.47;;;20.40;99.90;;;;;;4974746;28;20206;-89
2022/08/19 09:53:01;;;;;;;4.60;3.28;;;20.40;99.90;;;;;;4974369;28;20177;-90
2022/08/19 09:55:26;;;;;;;5.15;2.80;;;20.40;99.90;;;;;;4974345;28;20181;-92
2022/08/19 09:57:54;;;;;;;5.38;3.42;;;20.30;99.90;;;;;;4958298;28;20205;-90
2022/08/19 10:00:20;;;;;;;3.53;3.03;;;20.30;99.90;;;;;;4974302;28;20189;-91
2022/08/19 10:02:46;;;;;;;4.63;2.97;;;20.20;99.90;;;;;;4974422;28;20264;-88
2022/08/19 10:08:00;;;;;;;6.07;3.20;;;20.20;99.90;;;;;;4959156;29;20173;-91
2022/08/19 10:10:26;;;;;;;7.72;3.50;;;20.20;99.90;;;;;;4973927;28;20181;-89
2022/08/19 10:12:52;;;;;;;4.88;3.33;;;20.10;99.90;;;;;;4973600;28;20189;-87
2022/08/19 10:15:20;;;;;;;5.00;3.53;;;20.10;99.90;;;;;;4974062;28;20218;-87
2022/08/19 10:17:48;;;;;;;4.70;3.25;;;20.10;99.90;;;;;;4974283;28;20217;-92
2022/08/19 10:20:14;;;;;;;5.72;3.80;;;20.10;99.90;;;;;;4977059;28;20212;-89
2022/08/19 10:22:41;;;;;;;4.55;4.00;;;20.10;99.90;;;;;;4980217;28;20173;-89
2022/08/19 10:25:07;;;;;;;3.90;3.50;;;20.10;99.90;;;;;;4975199;28;20189;-90
2022/08/19 10:27:33;;;;;;;7.00;3.90;;;20.10;99.90;;;;;;4957866;29;20680;-91
2022/08/19 10:29:59;;;;;;;9.18;4.68;;;20.10;99.90;;;;;;4957908;28;20217;-92
2022/08/19 10:32:25;;;;;;;7.75;4.40;;;20.10;99.90;;;;;;4957901;29;20613;-89
2022/08/19 10:34:52;;;;;;;6.45;4.10;;;20.20;99.90;;;;;;4973732;28;20181;-90
2022/08/19 10:37:17;;;;;;;6.35;4.15;;;20.30;99.90;;;;;;4973675;28;20531;-89
2022/08/19 10:39:47;;;;;;;5.55;4.05;;;20.30;99.90;;;;;;4958770;28;20224;-90
2022/08/19 10:42:13;;;;;;;8.00;4.10;;;20.30;99.90;;;;;;4972889;28;20225;-88
2022/08/19 10:44:40;;;;;;;7.65;3.45;;;20.30;99.90;;;;;;4972854;28;20592;-90
2022/08/19 10:47:06;;;;;;;3.88;3.17;;;20.30;99.90;;;;;;4958233;28;20624;-91
2022/08/19 10:52:32;;;;;;;4.43;3.22;;;20.30;99.90;;;;;;4958490;28;20177;-92
2022/08/19 10:52:33;;;;;;;5.85;3.67;;;20.30;99.90;;;;;;4958120;29;20174;-91
2022/08/19 10:57:48;;;;;;;4.80;3.75;;;20.40;99.90;;;;;;4958498;29;20203;-91
2022/08/19 11:00:14;;;;;;;5.82;3.65;;;20.40;99.90;;;;;;4956982;29;20181;-89
2022/08/19 11:02:41;;;;;;;4.90;3.75;;;20.40;99.90;;;;;;4958188;28;20173;-89
2022/08/19 11:05:10;;;;;;;5.47;3.85;;;20.50;99.90;;;;;;4958149;28;20492;-89
2022/08/19 11:07:40;;;;;;;4.32;3.50;;;20.50;99.90;;;;;;4958408;28;20169;-91
2022/08/19 11:10:08;;;;;;;5.00;3.78;;;20.50;99.90;;;;;;4956940;28;20236;-89
2022/08/19 11:12:35;;;;;;;4.95;3.28;;;20.50;99.90;;;;;;4956852;29;20237;-88
2022/08/19 11:15:01;;;;;;;6.43;3.65;;;20.60;99.90;;;;;;4972963;28;20683;-91
2022/08/19 11:17:27;;;;;;;5.80;3.90;;;20.70;99.90;;;;;;4972990;28;20177;-91
2022/08/19 11:19:55;;;;;;;5.75;4.05;;;20.80;99.90;;;;;;4973017;28;20486;-91
2022/08/19 11:22:20;;;;;;;5.28;3.85;;;20.90;99.90;;;;;;4972924;28;20213;-88
2022/08/19 11:24:46;;;;;;;6.75;4.82;;;21.00;99.90;;;;;;4972612;28;20224;-89
2022/08/19 11:27:11;;;;;;;7.70;4.63;;;21.00;99.90;;;;;;4972711;28;20173;-93
2022/08/19 11:29:38;;;;;;;6.40;4.28;;;21.20;99.90;;;;;;4972568;28;20184;-91
2022/08/19 11:32:07;;;;;;;9.73;4.10;;;21.40;99.90;;;;;;4972769;28;20192;-90
2022/08/19 11:34:34;;;;;;;6.47;4.00;;;21.60;99.90;;;;;;4972606;28;20173;-91
2022/08/19 11:37:03;;;;;;;6.60;4.28;;;21.80;99.90;;;;;;4972305;28;20181;-89
2022/08/19 11:39:32;;;;;;;5.00;3.58;;;22.00;99.90;;;;;;4972469;28;20269;-90
2022/08/19 11:41:59;;;;;;;4.55;3.60;;;22.30;99.90;;;;;;4972598;28;20499;-89
2022/08/19 11:44:25;;;;;;;5.78;4.28;;;22.60;99.90;;;;;;4972229;28;20201;-92
2022/08/19 11:46:52;;;;;;;7.70;4.00;;;22.60;99.90;;;;;;4972390;28;20177;-89
2022/08/19 11:49:20;;;;;;;6.07;4.10;;;22.50;99.90;;;;;;4972351;28;20189;-91
2022/08/19 11:51:47;;;;;;;7.22;4.10;;;22.50;99.90;;;;;;4971445;28;20173;-90
2022/08/19 11:54:15;;;;;;;4.60;3.60;;;22.60;99.90;;;;;;4971926;28;20232;-93
2022/08/19 11:56:41;;;;;;;4.53;3.42;;;22.50;99.90;;;;;;4972303;28;20180;-92
2022/08/19 11:59:10;;;;;;;6.18;3.97;;;22.50;99.90;;;;;;4972328;28;20244;-91
2022/08/19 12:01:36;;;;;;;5.82;4.45;;;22.40;99.90;;;;;;4972483;28;20173;-90
2022/08/19 12:04:04;;;;;;;6.40;4.57;;;22.40;99.90;;;;;;4972193;28;20181;-89
2022/08/19 12:06:33;;;;;;;6.05;3.70;;;22.40;99.90;;;;;;4972099;28;20185;-87
2022/08/19 12:09:05;;;;;;;5.32;3.75;;;22.50;99.90;;;;;;4971902;28;20181;-93
2022/08/19 12:11:31;;;;;;;3.90;3.33;;;22.60;99.90;;;;;;4972228;28;20177;-90
2022/08/19 12:13:57;;;;;;;4.63;3.42;;;22.70;99.90;;;;;;4972372;28;20212;-94
2022/08/19 12:16:27;;;;;;;5.38;3.88;;;22.60;99.90;;;;;;4972998;28;20192;-92
2022/08/19 12:18:54;;;;;;;3.78;3.33;;;22.60;99.90;;;;;;4972996;28;20217;-93
2022/08/19 12:21:24;;;;;;;4.68;3.47;;;22.50;99.90;;;;;;4956286;29;20616;-91
2022/08/19 12:23:51;;;;;;;3.42;2.90;;;22.40;99.90;;;;;;4971999;28;20260;-89
2022/08/19 12:26:17;;;;;;;4.57;3.40;;;22.30;99.90;;;;;;4971847;28;20340;-91
2022/08/19 12:28:43;;;;;;;4.38;3.25;;;22.30;99.90;;;;;;4971700;28;20228;-89
2022/08/19 12:31:13;;;;;;;4.38;3.55;;;22.20;99.90;;;;;;4971745;28;20181;-92
2022/08/19 12:33:40;;;;;;;3.13;2.83;;;22.20;99.90;;;;;;4972170;28;20193;-90
2022/08/19 12:36:09;;;;;;;3.80;3.33;;;22.20;99.90;;;;;;4975635;28;20181;-90
2022/08/19 12:38:36;;;;;;;3.65;3.13;;;22.20;99.90;;;;;;4975552;28;20221;-92
2022/08/19 12:41:06;;;;;;;4.28;3.42;;;22.30;99.90;;;;;;4975922;28;20655;-87
2022/08/19 12:43:32;;;;;;;6.32;4.10;;;22.40;99.90;;;;;;4975490;28;20288;-90
2022/08/19 12:45:58;;;;;;;5.20;3.38;;;22.40;99.90;;;;;;4976099;28;20185;-88
2022/08/19 12:48:23;;;;;;;6.80;3.75;;;22.50;99.90;;;;;;4975765;28;20239;-89
2022/08/19 12:50:51;;;;;;;4.85;3.05;;;22.60;99.90;;;;;;4975375;28;20180;-92
2022/08/19 12:53:17;;;;;;;4.40;3.40;;;22.80;99.90;;;;;;4974820;28;20534;-88
2022/08/19 12:55:43;;;;;;;7.10;3.40;;;22.90;99.90;;;;;;4975300;28;20188;-89
2022/08/19 12:58:09;;;;;;;3.58;2.92;;;23.10;99.90;;;;;;4975256;28;20201;-91
2022/08/19 13:00:36;;;;;;;5.18;3.45;;;23.20;99.90;;;;;;4975417;28;20191;-89
2022/08/19 13:03:02;;;;;;;3.80;3.08;;;23.30;99.90;;;;;;4974814;28;20211;-89
2022/08/19 13:05:31;;;;;;;4.70;3.92;;;23.30;99.90;;;;;;4975000;28;20275;-89
2022/08/19 13:07:59;;;;;;;3.92;3.45;;;23.40;99.90;;;;;;4974603;28;20207;-88
2022/08/19 13:10:34;;;;;;;3.85;3.38;;;23.50;99.90;;;;;;4974745;28;20608;-89
2022/08/19 13:13:05;;;;;;;3.80;3.00;;;23.50;99.90;;;;;;4974805;28;20181;-89